Kezdőlap
METAR-TAF:

METAR-TAF

Repülőterek :

Tuktoyaktuk, Északnyugati területek, Kanada

földrajzi szélesség: 69-27N, földrajzi hosszúság: 133-01W, magasság: 5 m

Jelenlegi meteorológiai megfigyelések

A jelentés 5 órával és 50 perccel ezelõtt készült, 05:00 UTC
Északkeleti szél 12 kt
Hőmérséklet 13°C
Páratartalom 82%
Légköri nyomás 1022 hPa
Látótávolság: 16.1 km
Kevés felhő 21000 lábon

METAR: CYUB 210500Z 04012KT 10SM FEW210 13/10 A3018 RMK CI1 LAST OBS/NEXT OBS 211300 SLP221

Idő: 04:50 (10:50 UTC)

Előrejelzés

A jelentés 10 órával és 10 perccel ezelõtt készült, 00:40 UTC
Az előrejelzés 21-én 01 óra UTC és 21-én 05 óra UTC között érvényes
Nyugati szél 10 kt
Látótávolság: 10 km
Kevés felhő 10000 lábon
21-én 01 óra UTC és 21-én 03 óra UTC között fokozatosan kialakuló
Észak-északkeleti szél 10 kt

TAF: CYUB 210040Z 2101/2105 28010KT P6SM FEW100 BECMG 2101/2103 02010KT RMK NXT FCST BY 211500Z

Meteorológiai megfigyelések és előrejelzések több, mint 4000 repülőtéren (METAR és TAF jelentéseket).

A térképen piros és sárga pontok jelzik az elérhető meteorológiai állomásokat.

Mozgassa az egeret a pont fölött, hogy megjelenjen az állomás neve.

Azután kattintson az időjárási megfigyelések és előrejelzések megtekintéséhez.

A térkép megváltoztatása: kattintson a fekete keresztel jelölt zöld gombra ráközelítéshez, a vonallal jelölt zöld gombra távolításhoz, vagy a zöld nyilakra a szomszédos térképek eléréséhez.


METAR-TAF: